sensor_id;sensor_type;location;lat;lon;timestamp;temperature;humidity
48488;DHT22;34289;48.572;13.378;2023-04-15T00:00:03;6.90;99.90
48488;DHT22;34289;48.572;13.378;2023-04-15T00:02:29;6.40;99.90
48488;DHT22;34289;48.572;13.378;2023-04-15T00:04:55;7.00;99.90
48488;DHT22;34289;48.572;13.378;2023-04-15T00:07:21;6.30;99.90
48488;DHT22;34289;48.572;13.378;2023-04-15T00:09:46;6.30;99.90
48488;DHT22;34289;48.572;13.378;2023-04-15T00:12:13;6.30;99.90
48488;DHT22;34289;48.572;13.378;2023-04-15T00:14:38;6.30;99.90
48488;DHT22;34289;48.572;13.378;2023-04-15T00:17:04;6.30;99.90
48488;DHT22;34289;48.572;13.378;2023-04-15T00:19:30;6.70;99.90
48488;DHT22;34289;48.572;13.378;2023-04-15T00:21:56;6.40;99.90
48488;DHT22;34289;48.572;13.378;2023-04-15T00:24:22;6.30;99.90
48488;DHT22;34289;48.572;13.378;2023-04-15T00:26:48;6.40;99.90
48488;DHT22;34289;48.572;13.378;2023-04-15T00:29:14;6.40;99.90
48488;DHT22;34289;48.572;13.378;2023-04-15T00:31:40;6.30;99.90
48488;DHT22;34289;48.572;13.378;2023-04-15T00:34:06;6.30;99.90
48488;DHT22;34289;48.572;13.378;2023-04-15T00:36:32;7.00;99.90
48488;DHT22;34289;48.572;13.378;2023-04-15T00:38:59;6.80;99.90
48488;DHT22;34289;48.572;13.378;2023-04-15T00:41:25;6.20;99.90
48488;DHT22;34289;48.572;13.378;2023-04-15T00:43:51;6.30;99.90
48488;DHT22;34289;48.572;13.378;2023-04-15T00:46:18;6.30;99.90
48488;DHT22;34289;48.572;13.378;2023-04-15T00:48:45;6.30;99.90
48488;DHT22;34289;48.572;13.378;2023-04-15T00:51:12;6.20;99.90
48488;DHT22;34289;48.572;13.378;2023-04-15T00:53:38;6.20;99.90
48488;DHT22;34289;48.572;13.378;2023-04-15T00:56:04;6.20;99.90
48488;DHT22;34289;48.572;13.378;2023-04-15T00:58:30;6.10;99.90
48488;DHT22;34289;48.572;13.378;2023-04-15T01:00:56;6.20;99.90
48488;DHT22;34289;48.572;13.378;2023-04-15T01:03:22;6.10;99.90
48488;DHT22;34289;48.572;13.378;2023-04-15T01:05:49;6.20;99.90
48488;DHT22;34289;48.572;13.378;2023-04-15T01:08:14;6.10;99.90
48488;DHT22;34289;48.572;13.378;2023-04-15T01:10:40;6.30;99.90
48488;DHT22;34289;48.572;13.378;2023-04-15T01:13:06;6.10;99.90
48488;DHT22;34289;48.572;13.378;2023-04-15T01:15:32;6.10;99.90
48488;DHT22;34289;48.572;13.378;2023-04-15T01:18:00;6.10;99.90
48488;DHT22;34289;48.572;13.378;2023-04-15T01:20:27;6.20;99.90
48488;DHT22;34289;48.572;13.378;2023-04-15T01:22:53;6.20;99.90
48488;DHT22;34289;48.572;13.378;2023-04-15T01:25:32;6.20;99.90
48488;DHT22;34289;48.572;13.378;2023-04-15T01:27:58;6.20;99.90
48488;DHT22;34289;48.572;13.378;2023-04-15T01:30:24;6.20;99.90
48488;DHT22;34289;48.572;13.378;2023-04-15T01:32:51;6.10;99.90
48488;DHT22;34289;48.572;13.378;2023-04-15T01:35:17;6.20;99.90
48488;DHT22;34289;48.572;13.378;2023-04-15T01:37:43;6.20;99.90
48488;DHT22;34289;48.572;13.378;2023-04-15T01:40:10;6.20;99.90
48488;DHT22;34289;48.572;13.378;2023-04-15T01:42:35;6.20;99.90
48488;DHT22;34289;48.572;13.378;2023-04-15T01:45:02;6.20;99.90
48488;DHT22;34289;48.572;13.378;2023-04-15T01:47:28;6.20;99.90
48488;DHT22;34289;48.572;13.378;2023-04-15T01:49:54;6.10;99.90
48488;DHT22;34289;48.572;13.378;2023-04-15T01:52:19;6.10;99.90
48488;DHT22;34289;48.572;13.378;2023-04-15T01:54:45;6.20;99.90
48488;DHT22;34289;48.572;13.378;2023-04-15T01:57:11;6.20;99.90
48488;DHT22;34289;48.572;13.378;2023-04-15T01:59:37;6.10;99.90
48488;DHT22;34289;48.572;13.378;2023-04-15T02:02:03;6.10;99.90
48488;DHT22;34289;48.572;13.378;2023-04-15T02:04:29;6.80;99.90
48488;DHT22;34289;48.572;13.378;2023-04-15T02:06:54;6.10;99.90
48488;DHT22;34289;48.572;13.378;2023-04-15T02:09:20;6.10;99.90
48488;DHT22;34289;48.572;13.378;2023-04-15T02:11:45;6.20;99.90
48488;DHT22;34289;48.572;13.378;2023-04-15T02:14:11;4.50;99.90
48488;DHT22;34289;48.572;13.378;2023-04-15T02:16:37;6.20;99.90
48488;DHT22;34289;48.572;13.378;2023-04-15T02:19:02;4.10;99.90
48488;DHT22;34289;48.572;13.378;2023-04-15T02:21:29;6.10;99.90
48488;DHT22;34289;48.572;13.378;2023-04-15T02:23:55;5.00;99.90
48488;DHT22;34289;48.572;13.378;2023-04-15T02:26:20;6.10;99.90
48488;DHT22;34289;48.572;13.378;2023-04-15T02:28:47;6.10;99.90
48488;DHT22;34289;48.572;13.378;2023-04-15T02:31:13;6.10;99.90
48488;DHT22;34289;48.572;13.378;2023-04-15T02:33:39;6.10;99.90
48488;DHT22;34289;48.572;13.378;2023-04-15T02:36:04;6.00;99.90
48488;DHT22;34289;48.572;13.378;2023-04-15T02:38:31;6.00;99.90
48488;DHT22;34289;48.572;13.378;2023-04-15T02:40:56;6.00;99.90
48488;DHT22;34289;48.572;13.378;2023-04-15T02:43:22;6.00;99.90
48488;DHT22;34289;48.572;13.378;2023-04-15T02:45:49;6.70;99.90
48488;DHT22;34289;48.572;13.378;2023-04-15T02:48:15;6.00;99.90
48488;DHT22;34289;48.572;13.378;2023-04-15T02:50:43;6.00;99.90
48488;DHT22;34289;48.572;13.378;2023-04-15T02:53:09;5.90;99.90
48488;DHT22;34289;48.572;13.378;2023-04-15T02:55:34;6.00;99.90
48488;DHT22;34289;48.572;13.378;2023-04-15T02:58:00;6.00;99.90
48488;DHT22;34289;48.572;13.378;2023-04-15T03:00:26;6.10;99.90
48488;DHT22;34289;48.572;13.378;2023-04-15T03:03:03;6.00;99.90
48488;DHT22;34289;48.572;13.378;2023-04-15T03:05:29;6.00;99.90
48488;DHT22;34289;48.572;13.378;2023-04-15T03:07:55;6.00;99.90
48488;DHT22;34289;48.572;13.378;2023-04-15T03:10:21;6.80;99.90
48488;DHT22;34289;48.572;13.378;2023-04-15T03:12:47;6.10;99.90
48488;DHT22;34289;48.572;13.378;2023-04-15T03:15:13;6.10;99.90
48488;DHT22;34289;48.572;13.378;2023-04-15T03:17:38;6.10;99.90
48488;DHT22;34289;48.572;13.378;2023-04-15T03:20:05;6.00;99.90
48488;DHT22;34289;48.572;13.378;2023-04-15T03:22:31;5.90;99.90
48488;DHT22;34289;48.572;13.378;2023-04-15T03:24:57;5.90;99.90
48488;DHT22;34289;48.572;13.378;2023-04-15T03:27:24;5.90;99.90
48488;DHT22;34289;48.572;13.378;2023-04-15T03:29:50;5.90;99.90
48488;DHT22;34289;48.572;13.378;2023-04-15T03:32:16;6.20;99.90
48488;DHT22;34289;48.572;13.378;2023-04-15T03:34:42;5.90;99.90
48488;DHT22;34289;48.572;13.378;2023-04-15T03:37:08;5.80;99.90
48488;DHT22;34289;48.572;13.378;2023-04-15T03:39:34;5.80;99.90
48488;DHT22;34289;48.572;13.378;2023-04-15T03:42:00;5.80;99.90
48488;DHT22;34289;48.572;13.378;2023-04-15T03:44:26;5.80;99.90
48488;DHT22;34289;48.572;13.378;2023-04-15T03:46:52;6.00;99.90
48488;DHT22;34289;48.572;13.378;2023-04-15T03:49:18;5.80;99.90
48488;DHT22;34289;48.572;13.378;2023-04-15T03:51:44;5.70;99.90
48488;DHT22;34289;48.572;13.378;2023-04-15T03:54:09;5.70;99.90
48488;DHT22;34289;48.572;13.378;2023-04-15T03:56:36;5.60;99.90
48488;DHT22;34289;48.572;13.378;2023-04-15T03:59:01;5.60;99.90
48488;DHT22;34289;48.572;13.378;2023-04-15T04:01:27;5.70;99.90
48488;DHT22;34289;48.572;13.378;2023-04-15T04:03:53;5.70;99.90
48488;DHT22;34289;48.572;13.378;2023-04-15T04:06:19;5.70;99.90
48488;DHT22;34289;48.572;13.378;2023-04-15T04:08:44;6.30;99.90
48488;DHT22;34289;48.572;13.378;2023-04-15T04:11:10;5.70;99.90
48488;DHT22;34289;48.572;13.378;2023-04-15T04:13:36;5.70;99.90
48488;DHT22;34289;48.572;13.378;2023-04-15T04:16:01;5.70;99.90
48488;DHT22;34289;48.572;13.378;2023-04-15T04:18:30;5.60;99.90
48488;DHT22;34289;48.572;13.378;2023-04-15T04:20:55;6.00;99.90
48488;DHT22;34289;48.572;13.378;2023-04-15T04:23:21;5.40;99.90
48488;DHT22;34289;48.572;13.378;2023-04-15T04:25:47;5.50;99.90
48488;DHT22;34289;48.572;13.378;2023-04-15T04:28:12;5.50;99.90
48488;DHT22;34289;48.572;13.378;2023-04-15T04:30:38;5.50;99.90
48488;DHT22;34289;48.572;13.378;2023-04-15T04:33:04;5.50;99.90
48488;DHT22;34289;48.572;13.378;2023-04-15T04:35:29;5.60;99.90
48488;DHT22;34289;48.572;13.378;2023-04-15T04:37:55;5.60;99.90
48488;DHT22;34289;48.572;13.378;2023-04-15T04:40:21;5.60;99.90
48488;DHT22;34289;48.572;13.378;2023-04-15T04:42:47;5.80;99.90
48488;DHT22;34289;48.572;13.378;2023-04-15T04:45:12;5.60;99.90
48488;DHT22;34289;48.572;13.378;2023-04-15T04:47:38;5.60;99.90
48488;DHT22;34289;48.572;13.378;2023-04-15T04:50:04;6.10;99.90
48488;DHT22;34289;48.572;13.378;2023-04-15T04:52:30;5.60;99.90
48488;DHT22;34289;48.572;13.378;2023-04-15T04:54:56;5.50;99.90
48488;DHT22;34289;48.572;13.378;2023-04-15T04:57:21;5.50;99.90
48488;DHT22;34289;48.572;13.378;2023-04-15T04:59:47;5.50;99.90
48488;DHT22;34289;48.572;13.378;2023-04-15T05:02:12;5.50;99.90
48488;DHT22;34289;48.572;13.378;2023-04-15T05:04:38;5.40;99.90
48488;DHT22;34289;48.572;13.378;2023-04-15T05:07:04;5.40;99.90
48488;DHT22;34289;48.572;13.378;2023-04-15T05:09:29;5.50;99.90
48488;DHT22;34289;48.572;13.378;2023-04-15T05:11:56;5.60;99.90
48488;DHT22;34289;48.572;13.378;2023-04-15T05:14:22;5.50;99.90
48488;DHT22;34289;48.572;13.378;2023-04-15T05:16:47;5.40;99.90
48488;DHT22;34289;48.572;13.378;2023-04-15T05:19:13;5.40;99.90
48488;DHT22;34289;48.572;13.378;2023-04-15T05:21:39;5.40;99.90
48488;DHT22;34289;48.572;13.378;2023-04-15T05:24:04;5.30;99.90
48488;DHT22;34289;48.572;13.378;2023-04-15T05:26:30;5.20;99.90
48488;DHT22;34289;48.572;13.378;2023-04-15T05:28:56;5.30;99.90
48488;DHT22;34289;48.572;13.378;2023-04-15T05:31:22;5.30;99.90
48488;DHT22;34289;48.572;13.378;2023-04-15T05:33:47;5.30;99.90
48488;DHT22;34289;48.572;13.378;2023-04-15T05:36:13;5.80;99.90
48488;DHT22;34289;48.572;13.378;2023-04-15T05:38:39;5.90;99.90
48488;DHT22;34289;48.572;13.378;2023-04-15T05:41:04;5.10;99.90
48488;DHT22;34289;48.572;13.378;2023-04-15T05:43:30;5.10;99.90
48488;DHT22;34289;48.572;13.378;2023-04-15T05:45:56;5.70;99.90
48488;DHT22;34289;48.572;13.378;2023-04-15T05:48:21;5.10;99.90
48488;DHT22;34289;48.572;13.378;2023-04-15T05:50:47;5.10;99.90
48488;DHT22;34289;48.572;13.378;2023-04-15T05:53:12;5.10;99.90
48488;DHT22;34289;48.572;13.378;2023-04-15T05:55:38;5.10;99.90
48488;DHT22;34289;48.572;13.378;2023-04-15T05:58:03;5.10;99.90
48488;DHT22;34289;48.572;13.378;2023-04-15T06:00:29;5.20;99.90
48488;DHT22;34289;48.572;13.378;2023-04-15T06:02:56;5.20;99.90
48488;DHT22;34289;48.572;13.378;2023-04-15T06:05:23;5.20;99.90
48488;DHT22;34289;48.572;13.378;2023-04-15T06:07:49;5.20;99.90
48488;DHT22;34289;48.572;13.378;2023-04-15T06:10:15;5.20;99.90
48488;DHT22;34289;48.572;13.378;2023-04-15T06:12:41;5.20;99.90
48488;DHT22;34289;48.572;13.378;2023-04-15T06:15:06;5.30;99.90
48488;DHT22;34289;48.572;13.378;2023-04-15T06:17:35;5.20;99.90
48488;DHT22;34289;48.572;13.378;2023-04-15T06:20:00;5.20;99.90
48488;DHT22;34289;48.572;13.378;2023-04-15T06:22:26;5.90;99.90
48488;DHT22;34289;48.572;13.378;2023-04-15T06:24:51;5.00;99.90
48488;DHT22;34289;48.572;13.378;2023-04-15T06:27:17;5.10;99.90
48488;DHT22;34289;48.572;13.378;2023-04-15T06:29:43;5.10;99.90
48488;DHT22;34289;48.572;13.378;2023-04-15T06:32:09;5.20;99.90
48488;DHT22;34289;48.572;13.378;2023-04-15T06:34:35;5.10;99.90
48488;DHT22;34289;48.572;13.378;2023-04-15T06:37:00;5.20;99.90
48488;DHT22;34289;48.572;13.378;2023-04-15T06:39:26;5.30;99.90
48488;DHT22;34289;48.572;13.378;2023-04-15T06:41:52;5.40;99.90
48488;DHT22;34289;48.572;13.378;2023-04-15T06:44:18;5.40;99.90
48488;DHT22;34289;48.572;13.378;2023-04-15T06:46:43;5.50;99.90
48488;DHT22;34289;48.572;13.378;2023-04-15T06:49:09;5.50;99.90
48488;DHT22;34289;48.572;13.378;2023-04-15T06:51:36;5.50;99.90
48488;DHT22;34289;48.572;13.378;2023-04-15T06:54:02;5.40;99.90
48488;DHT22;34289;48.572;13.378;2023-04-15T06:56:30;5.60;99.90
48488;DHT22;34289;48.572;13.378;2023-04-15T06:58:57;5.60;99.90
48488;DHT22;34289;48.572;13.378;2023-04-15T07:01:22;5.60;99.90
48488;DHT22;34289;48.572;13.378;2023-04-15T07:03:48;6.30;99.90
48488;DHT22;34289;48.572;13.378;2023-04-15T07:06:14;5.70;99.90
48488;DHT22;34289;48.572;13.378;2023-04-15T07:08:40;5.80;99.90
48488;DHT22;34289;48.572;13.378;2023-04-15T07:11:06;5.80;99.90
48488;DHT22;34289;48.572;13.378;2023-04-15T07:13:32;6.50;99.90
48488;DHT22;34289;48.572;13.378;2023-04-15T07:15:57;5.70;99.90
48488;DHT22;34289;48.572;13.378;2023-04-15T07:18:23;5.80;99.90
48488;DHT22;34289;48.572;13.378;2023-04-15T07:20:48;5.80;99.90
48488;DHT22;34289;48.572;13.378;2023-04-15T07:23:14;6.40;99.90
48488;DHT22;34289;48.572;13.378;2023-04-15T07:25:40;5.70;99.90
48488;DHT22;34289;48.572;13.378;2023-04-15T07:28:06;5.80;99.90
48488;DHT22;34289;48.572;13.378;2023-04-15T07:30:32;5.70;99.90
48488;DHT22;34289;48.572;13.378;2023-04-15T07:32:57;5.70;99.90
48488;DHT22;34289;48.572;13.378;2023-04-15T07:35:23;6.00;99.90
48488;DHT22;34289;48.572;13.378;2023-04-15T07:37:50;5.70;99.90
48488;DHT22;34289;48.572;13.378;2023-04-15T07:40:16;5.80;99.90
48488;DHT22;34289;48.572;13.378;2023-04-15T07:42:43;5.00;99.90
48488;DHT22;34289;48.572;13.378;2023-04-15T07:45:09;5.90;99.90
48488;DHT22;34289;48.572;13.378;2023-04-15T07:47:34;5.90;99.90
48488;DHT22;34289;48.572;13.378;2023-04-15T07:50:01;5.90;99.90
48488;DHT22;34289;48.572;13.378;2023-04-15T07:52:27;6.00;99.90
48488;DHT22;34289;48.572;13.378;2023-04-15T07:54:52;6.00;99.90
48488;DHT22;34289;48.572;13.378;2023-04-15T07:57:18;6.00;99.90
48488;DHT22;34289;48.572;13.378;2023-04-15T07:59:44;6.00;99.90
48488;DHT22;34289;48.572;13.378;2023-04-15T08:02:10;6.30;99.90
48488;DHT22;34289;48.572;13.378;2023-04-15T08:04:36;6.10;99.90
48488;DHT22;34289;48.572;13.378;2023-04-15T08:07:03;6.10;99.90
48488;DHT22;34289;48.572;13.378;2023-04-15T08:09:29;6.30;99.90
48488;DHT22;34289;48.572;13.378;2023-04-15T08:11:55;7.10;99.90
48488;DHT22;34289;48.572;13.378;2023-04-15T08:14:21;6.10;99.90
48488;DHT22;34289;48.572;13.378;2023-04-15T08:16:47;6.10;99.90
48488;DHT22;34289;48.572;13.378;2023-04-15T08:19:12;6.20;99.90
48488;DHT22;34289;48.572;13.378;2023-04-15T08:21:38;6.30;99.90
48488;DHT22;34289;48.572;13.378;2023-04-15T08:24:05;6.40;99.90
48488;DHT22;34289;48.572;13.378;2023-04-15T08:26:31;6.40;99.90
48488;DHT22;34289;48.572;13.378;2023-04-15T08:28:57;6.50;99.90
48488;DHT22;34289;48.572;13.378;2023-04-15T08:31:22;6.50;99.90
48488;DHT22;34289;48.572;13.378;2023-04-15T08:33:48;6.90;99.90
48488;DHT22;34289;48.572;13.378;2023-04-15T08:36:16;6.50;99.90
48488;DHT22;34289;48.572;13.378;2023-04-15T08:38:43;7.10;99.90
48488;DHT22;34289;48.572;13.378;2023-04-15T08:41:23;6.60;99.90
48488;DHT22;34289;48.572;13.378;2023-04-15T08:43:57;6.70;99.90
48488;DHT22;34289;48.572;13.378;2023-04-15T08:46:23;6.70;99.90
48488;DHT22;34289;48.572;13.378;2023-04-15T08:48:49;6.60;99.90
48488;DHT22;34289;48.572;13.378;2023-04-15T08:51:16;6.70;99.90
48488;DHT22;34289;48.572;13.378;2023-04-15T08:53:43;6.80;99.90
48488;DHT22;34289;48.572;13.378;2023-04-15T08:56:11;6.70;99.90
48488;DHT22;34289;48.572;13.378;2023-04-15T08:58:38;6.90;99.90
48488;DHT22;34289;48.572;13.378;2023-04-15T09:01:04;6.80;99.90
48488;DHT22;34289;48.572;13.378;2023-04-15T09:03:31;6.80;99.90
48488;DHT22;34289;48.572;13.378;2023-04-15T09:05:56;6.80;99.90
48488;DHT22;34289;48.572;13.378;2023-04-15T09:08:23;7.20;99.90
48488;DHT22;34289;48.572;13.378;2023-04-15T09:10:48;6.80;99.90
48488;DHT22;34289;48.572;13.378;2023-04-15T09:13:14;7.00;99.90
48488;DHT22;34289;48.572;13.378;2023-04-15T09:15:40;7.00;99.90
48488;DHT22;34289;48.572;13.378;2023-04-15T09:18:06;7.00;99.90
48488;DHT22;34289;48.572;13.378;2023-04-15T09:20:41;7.80;99.90
48488;DHT22;34289;48.572;13.378;2023-04-15T09:23:14;7.10;99.90
48488;DHT22;34289;48.572;13.378;2023-04-15T09:25:40;7.20;99.90
48488;DHT22;34289;48.572;13.378;2023-04-15T09:28:09;7.20;99.90
48488;DHT22;34289;48.572;13.378;2023-04-15T09:30:35;7.30;99.90
48488;DHT22;34289;48.572;13.378;2023-04-15T09:33:02;7.30;99.90
48488;DHT22;34289;48.572;13.378;2023-04-15T09:35:33;7.40;99.90
48488;DHT22;34289;48.572;13.378;2023-04-15T09:38:04;7.50;99.90
48488;DHT22;34289;48.572;13.378;2023-04-15T09:40:40;7.60;99.90
48488;DHT22;34289;48.572;13.378;2023-04-15T09:43:08;7.60;99.90
48488;DHT22;34289;48.572;13.378;2023-04-15T09:45:34;7.50;99.90
48488;DHT22;34289;48.572;13.378;2023-04-15T09:48:21;7.40;99.90
48488;DHT22;34289;48.572;13.378;2023-04-15T09:50:50;7.50;99.90
48488;DHT22;34289;48.572;13.378;2023-04-15T09:53:21;8.00;99.90
48488;DHT22;34289;48.572;13.378;2023-04-15T09:55:58;7.40;99.90
48488;DHT22;34289;48.572;13.378;2023-04-15T09:58:30;7.30;99.90
48488;DHT22;34289;48.572;13.378;2023-04-15T10:00:57;7.30;99.90
48488;DHT22;34289;48.572;13.378;2023-04-15T10:03:28;7.30;99.90
48488;DHT22;34289;48.572;13.378;2023-04-15T10:05:55;7.40;99.90
48488;DHT22;34289;48.572;13.378;2023-04-15T10:08:27;7.40;99.90
48488;DHT22;34289;48.572;13.378;2023-04-15T10:10:53;7.40;99.90
48488;DHT22;34289;48.572;13.378;2023-04-15T10:13:23;7.50;99.90
48488;DHT22;34289;48.572;13.378;2023-04-15T10:15:57;7.70;99.90
48488;DHT22;34289;48.572;13.378;2023-04-15T10:18:26;7.60;99.90
48488;DHT22;34289;48.572;13.378;2023-04-15T10:20:52;7.50;99.90
48488;DHT22;34289;48.572;13.378;2023-04-15T10:23:19;7.70;99.90
48488;DHT22;34289;48.572;13.378;2023-04-15T10:25:48;7.60;99.90
48488;DHT22;34289;48.572;13.378;2023-04-15T10:28:15;8.10;99.90
48488;DHT22;34289;48.572;13.378;2023-04-15T10:30:42;7.70;99.90
48488;DHT22;34289;48.572;13.378;2023-04-15T10:33:08;7.70;99.90
48488;DHT22;34289;48.572;13.378;2023-04-15T10:35:36;7.80;99.90
48488;DHT22;34289;48.572;13.378;2023-04-15T10:38:01;7.60;99.90
48488;DHT22;34289;48.572;13.378;2023-04-15T10:40:29;7.60;99.90
48488;DHT22;34289;48.572;13.378;2023-04-15T10:43:00;8.00;99.90
48488;DHT22;34289;48.572;13.378;2023-04-15T10:45:36;8.10;99.90
48488;DHT22;34289;48.572;13.378;2023-04-15T10:48:04;7.70;99.90
48488;DHT22;34289;48.572;13.378;2023-04-15T10:50:31;7.60;99.90
48488;DHT22;34289;48.572;13.378;2023-04-15T10:52:58;7.60;99.90
48488;DHT22;34289;48.572;13.378;2023-04-15T10:55:25;7.70;99.90
48488;DHT22;34289;48.572;13.378;2023-04-15T10:57:58;7.60;99.90
48488;DHT22;34289;48.572;13.378;2023-04-15T11:00:28;7.60;99.90
48488;DHT22;34289;48.572;13.378;2023-04-15T11:08:07;7.50;99.90
48488;DHT22;34289;48.572;13.378;2023-04-15T11:13:03;7.50;99.90
48488;DHT22;34289;48.572;13.378;2023-04-15T11:15:35;7.60;99.90
48488;DHT22;34289;48.572;13.378;2023-04-15T11:18:11;7.40;99.90
48488;DHT22;34289;48.572;13.378;2023-04-15T11:20:39;7.50;99.90
48488;DHT22;34289;48.572;13.378;2023-04-15T11:23:05;7.50;99.90
48488;DHT22;34289;48.572;13.378;2023-04-15T11:25:33;7.50;99.90
48488;DHT22;34289;48.572;13.378;2023-04-15T11:28:00;7.40;99.90
48488;DHT22;34289;48.572;13.378;2023-04-15T11:30:31;7.30;99.90
48488;DHT22;34289;48.572;13.378;2023-04-15T11:33:09;7.30;99.90
48488;DHT22;34289;48.572;13.378;2023-04-15T11:35:36;7.30;99.90
48488;DHT22;34289;48.572;13.378;2023-04-15T11:38:03;7.30;99.90
48488;DHT22;34289;48.572;13.378;2023-04-15T11:40:30;7.20;99.90
48488;DHT22;34289;48.572;13.378;2023-04-15T11:45:32;7.20;99.90
48488;DHT22;34289;48.572;13.378;2023-04-15T11:48:05;7.30;99.90
48488;DHT22;34289;48.572;13.378;2023-04-15T11:50:31;7.30;99.90
48488;DHT22;34289;48.572;13.378;2023-04-15T11:53:02;7.30;99.90
48488;DHT22;34289;48.572;13.378;2023-04-15T11:55:29;7.30;99.90
48488;DHT22;34289;48.572;13.378;2023-04-15T11:58:09;7.40;99.90
48488;DHT22;34289;48.572;13.378;2023-04-15T12:00:35;7.40;99.90
48488;DHT22;34289;48.572;13.378;2023-04-15T12:03:40;7.50;99.90
48488;DHT22;34289;48.572;13.378;2023-04-15T12:06:19;7.30;99.90
48488;DHT22;34289;48.572;13.378;2023-04-15T12:11:26;7.50;99.90
48488;DHT22;34289;48.572;13.378;2023-04-15T12:16:23;7.50;99.90
48488;DHT22;34289;48.572;13.378;2023-04-15T12:18:54;7.70;99.90
48488;DHT22;34289;48.572;13.378;2023-04-15T12:21:25;7.60;99.90
48488;DHT22;34289;48.572;13.378;2023-04-15T12:23:53;7.70;99.90
48488;DHT22;34289;48.572;13.378;2023-04-15T12:26:44;7.80;99.90
48488;DHT22;34289;48.572;13.378;2023-04-15T12:29:12;7.90;99.90
48488;DHT22;34289;48.572;13.378;2023-04-15T12:31:54;7.90;99.90
48488;DHT22;34289;48.572;13.378;2023-04-15T12:34:31;8.10;99.90
48488;DHT22;34289;48.572;13.378;2023-04-15T12:36:59;8.10;99.90
48488;DHT22;34289;48.572;13.378;2023-04-15T12:39:27;8.10;99.90
48488;DHT22;34289;48.572;13.378;2023-04-15T12:41:53;8.10;99.90
48488;DHT22;34289;48.572;13.378;2023-04-15T12:44:22;8.20;99.90
48488;DHT22;34289;48.572;13.378;2023-04-15T12:46:49;8.10;99.90
48488;DHT22;34289;48.572;13.378;2023-04-15T12:49:15;8.00;99.90
48488;DHT22;34289;48.572;13.378;2023-04-15T12:51:43;8.00;99.90
48488;DHT22;34289;48.572;13.378;2023-04-15T12:54:10;8.00;99.90
48488;DHT22;34289;48.572;13.378;2023-04-15T12:56:35;8.20;99.90
48488;DHT22;34289;48.572;13.378;2023-04-15T12:59:01;8.10;99.90
48488;DHT22;34289;48.572;13.378;2023-04-15T13:01:27;8.10;99.90
48488;DHT22;34289;48.572;13.378;2023-04-15T13:03:53;8.00;99.90
48488;DHT22;34289;48.572;13.378;2023-04-15T13:06:18;8.10;99.90
48488;DHT22;34289;48.572;13.378;2023-04-15T13:08:44;8.30;99.90
48488;DHT22;34289;48.572;13.378;2023-04-15T13:11:10;8.20;99.90
48488;DHT22;34289;48.572;13.378;2023-04-15T13:13:35;8.30;99.90
48488;DHT22;34289;48.572;13.378;2023-04-15T13:16:01;8.30;99.90
48488;DHT22;34289;48.572;13.378;2023-04-15T13:18:27;8.40;99.90
48488;DHT22;34289;48.572;13.378;2023-04-15T13:20:53;8.70;99.90
48488;DHT22;34289;48.572;13.378;2023-04-15T13:23:19;8.70;99.90
48488;DHT22;34289;48.572;13.378;2023-04-15T13:25:45;8.80;99.90
48488;DHT22;34289;48.572;13.378;2023-04-15T13:28:11;9.00;99.90
48488;DHT22;34289;48.572;13.378;2023-04-15T13:30:37;9.10;99.90
48488;DHT22;34289;48.572;13.378;2023-04-15T13:33:04;9.30;99.90
48488;DHT22;34289;48.572;13.378;2023-04-15T13:35:33;9.60;99.90
48488;DHT22;34289;48.572;13.378;2023-04-15T13:37:59;9.00;99.90
48488;DHT22;34289;48.572;13.378;2023-04-15T13:40:25;9.00;99.90
48488;DHT22;34289;48.572;13.378;2023-04-15T13:42:51;9.10;99.90
48488;DHT22;34289;48.572;13.378;2023-04-15T13:45:17;9.70;99.90
48488;DHT22;34289;48.572;13.378;2023-04-15T13:47:43;9.30;99.90
48488;DHT22;34289;48.572;13.378;2023-04-15T13:50:09;9.70;99.90
48488;DHT22;34289;48.572;13.378;2023-04-15T13:52:35;9.80;99.90
48488;DHT22;34289;48.572;13.378;2023-04-15T13:55:02;9.80;99.90
48488;DHT22;34289;48.572;13.378;2023-04-15T13:57:28;9.80;99.90
48488;DHT22;34289;48.572;13.378;2023-04-15T13:59:53;9.50;99.90
48488;DHT22;34289;48.572;13.378;2023-04-15T14:02:20;9.40;99.90
48488;DHT22;34289;48.572;13.378;2023-04-15T14:04:47;9.30;99.90
48488;DHT22;34289;48.572;13.378;2023-04-15T14:07:13;9.20;99.90
48488;DHT22;34289;48.572;13.378;2023-04-15T14:09:38;9.10;99.90
48488;DHT22;34289;48.572;13.378;2023-04-15T14:12:04;9.30;99.90
48488;DHT22;34289;48.572;13.378;2023-04-15T14:14:30;9.20;99.90
48488;DHT22;34289;48.572;13.378;2023-04-15T14:16:56;9.20;99.90
48488;DHT22;34289;48.572;13.378;2023-04-15T14:19:22;9.80;99.90
48488;DHT22;34289;48.572;13.378;2023-04-15T14:21:48;9.50;99.90
48488;DHT22;34289;48.572;13.378;2023-04-15T14:24:14;9.40;99.90
48488;DHT22;34289;48.572;13.378;2023-04-15T14:26:39;9.60;99.90
48488;DHT22;34289;48.572;13.378;2023-04-15T14:29:05;9.40;99.90
48488;DHT22;34289;48.572;13.378;2023-04-15T14:31:30;9.80;99.90
48488;DHT22;34289;48.572;13.378;2023-04-15T14:33:56;9.20;99.90
48488;DHT22;34289;48.572;13.378;2023-04-15T14:36:22;9.10;99.90
48488;DHT22;34289;48.572;13.378;2023-04-15T14:38:47;9.00;99.90
48488;DHT22;34289;48.572;13.378;2023-04-15T14:41:13;9.00;99.90
48488;DHT22;34289;48.572;13.378;2023-04-15T14:43:38;8.90;99.90
48488;DHT22;34289;48.572;13.378;2023-04-15T14:46:04;8.90;99.90
48488;DHT22;34289;48.572;13.378;2023-04-15T14:48:30;9.00;99.90
48488;DHT22;34289;48.572;13.378;2023-04-15T14:50:56;9.00;99.90
48488;DHT22;34289;48.572;13.378;2023-04-15T14:53:22;9.60;99.90
48488;DHT22;34289;48.572;13.378;2023-04-15T14:55:48;9.00;99.90
48488;DHT22;34289;48.572;13.378;2023-04-15T14:58:13;9.20;99.90
48488;DHT22;34289;48.572;13.378;2023-04-15T15:00:39;9.10;99.90
48488;DHT22;34289;48.572;13.378;2023-04-15T15:03:07;9.00;99.90
48488;DHT22;34289;48.572;13.378;2023-04-15T15:05:45;8.90;99.90
48488;DHT22;34289;48.572;13.378;2023-04-15T15:08:11;8.80;99.90
48488;DHT22;34289;48.572;13.378;2023-04-15T15:10:38;8.80;99.90
48488;DHT22;34289;48.572;13.378;2023-04-15T15:13:08;8.70;99.90
48488;DHT22;34289;48.572;13.378;2023-04-15T15:15:35;8.80;99.90
48488;DHT22;34289;48.572;13.378;2023-04-15T15:18:01;8.70;99.90
48488;DHT22;34289;48.572;13.378;2023-04-15T15:20:27;8.90;99.90
48488;DHT22;34289;48.572;13.378;2023-04-15T15:22:53;8.80;99.90
48488;DHT22;34289;48.572;13.378;2023-04-15T15:25:19;9.70;99.90
48488;DHT22;34289;48.572;13.378;2023-04-15T15:27:45;8.80;99.90
48488;DHT22;34289;48.572;13.378;2023-04-15T15:30:11;8.80;99.90
48488;DHT22;34289;48.572;13.378;2023-04-15T15:32:41;8.70;99.90
48488;DHT22;34289;48.572;13.378;2023-04-15T15:35:07;8.70;99.90
48488;DHT22;34289;48.572;13.378;2023-04-15T15:37:34;8.60;99.90
48488;DHT22;34289;48.572;13.378;2023-04-15T15:40:02;8.60;99.90
48488;DHT22;34289;48.572;13.378;2023-04-15T15:42:30;8.70;99.90